Time;durP1;ratioP1;P1;durP2;ratioP2;P2;SDS_P1;SDS_P2;PMS_P1;PMS_P2;Temp;Humidity;BMP_temperature;BMP_pressure;BME280_temperature;BME280_humidity;BME280_pressure;Samples;Min_cycle;Max_cycle;Signal;HPM_P1;HPM_P2
2021/10/13 00:00:07;;;;;;;9.47;5.63;;;;;;;6.02;100.00;96480.25;4939600;28;20121;-84
2021/10/13 00:02:32;;;;;;;7.40;4.67;;;;;;;6.01;100.00;96474.19;4939582;28;20035;-85
2021/10/13 00:04:58;;;;;;;8.33;5.33;;;;;;;6.03;100.00;96481.88;4939444;28;20055;-85
2021/10/13 00:07:24;;;;;;;7.90;5.13;;;;;;;6.11;100.00;96479.50;4972430;28;20377;-84
2021/10/13 00:09:49;;;;;;;9.53;5.47;;;;;;;6.16;100.00;96471.28;4955739;28;20062;-85
2021/10/13 00:12:16;;;;;;;8.87;5.47;;;;;;;6.11;100.00;96475.09;4955352;28;20613;-85
2021/10/13 00:14:42;;;;;;;8.53;5.50;;;;;;;6.01;100.00;96468.16;4955459;28;20254;-84
2021/10/13 00:17:08;;;;;;;7.83;5.20;;;;;;;6.08;100.00;96474.53;4955711;28;20478;-84
2021/10/13 00:19:34;;;;;;;7.03;4.37;;;;;;;6.07;100.00;96471.09;4954315;28;20038;-85
2021/10/13 00:21:59;;;;;;;7.67;4.63;;;;;;;6.07;100.00;96480.69;4965977;28;20034;-85
2021/10/13 00:24:25;;;;;;;7.20;4.17;;;;;;;6.02;100.00;96475.03;4955600;28;20477;-85
2021/10/13 00:26:51;;;;;;;8.10;4.50;;;;;;;5.98;100.00;96484.06;4954245;28;20117;-85
2021/10/13 00:29:16;;;;;;;8.50;5.53;;;;;;;6.02;100.00;96488.06;4955070;28;20031;-84
2021/10/13 00:31:48;;;;;;;6.07;3.97;;;;;;;5.98;100.00;96486.66;4939131;28;20034;-84
2021/10/13 00:34:15;;;;;;;7.20;4.30;;;;;;;5.86;100.00;96491.88;4955057;28;20039;-84
2021/10/13 00:36:42;;;;;;;5.47;3.40;;;;;;;5.95;100.00;96494.75;4954240;28;20041;-84
2021/10/13 00:39:07;;;;;;;7.07;3.80;;;;;;;5.93;100.00;96496.63;4955117;28;20027;-84
2021/10/13 00:41:33;;;;;;;6.40;3.50;;;;;;;5.95;100.00;96492.13;4954668;28;20429;-84
2021/10/13 00:43:59;;;;;;;6.50;3.70;;;;;;;5.96;100.00;96486.78;4936411;29;20498;-84
2021/10/13 00:46:24;;;;;;;5.77;3.50;;;;;;;6.00;100.00;96485.59;4938554;28;20031;-84
2021/10/13 00:48:50;;;;;;;8.13;3.43;;;;;;;5.95;100.00;96494.75;4938419;28;20126;-84
2021/10/13 00:51:16;;;;;;;7.00;3.20;;;;;;;5.88;100.00;96486.56;4937779;28;20066;-84
2021/10/13 00:53:42;;;;;;;7.33;4.07;;;;;;;5.90;100.00;96488.09;4954212;28;20099;-84
2021/10/13 00:56:08;;;;;;;6.60;3.67;;;;;;;5.91;100.00;96488.91;4953889;28;20054;-85
2021/10/13 00:58:33;;;;;;;6.37;3.87;;;;;;;5.82;100.00;96487.88;4937789;28;20125;-83
2021/10/13 01:01:12;;;;;;;6.83;3.90;;;;;;;5.89;100.00;96496.84;4953778;28;20034;-84
2021/10/13 01:04:21;;;;;;;9.83;4.17;;;;;;;5.88;100.00;96500.44;4954622;28;20054;-84
2021/10/13 01:07:16;;;;;;;7.37;3.83;;;;;;;5.91;100.00;96504.56;4933939;28;20034;-84
2021/10/13 01:09:53;;;;;;;7.00;3.80;;;;;;;5.86;100.00;96504.94;4933459;28;20081;-84
2021/10/13 01:12:45;;;;;;;7.27;4.17;;;;;;;5.86;100.00;96517.16;4971603;28;20508;-85
2021/10/13 01:15:40;;;;;;;9.40;4.43;;;;;;;5.85;100.00;96516.34;4948423;28;20121;-84
2021/10/13 01:18:36;;;;;;;6.53;3.87;;;;;;;5.75;100.00;96518.03;4942010;29;20046;-84
2021/10/13 01:21:33;;;;;;;10.43;4.47;;;;;;;5.71;100.00;96527.06;4932352;28;20137;-84
2021/10/13 01:24:14;;;;;;;14.70;4.70;;;;;;;5.72;100.00;96526.09;4947187;28;20035;-84
2021/10/13 01:26:58;;;;;;;7.93;3.97;;;;;;;5.65;100.00;96524.91;4953509;28;20039;-84
2021/10/13 01:29:24;;;;;;;7.90;4.27;;;;;;;5.63;100.00;96519.84;4942847;28;20038;-84
2021/10/13 01:31:53;;;;;;;10.37;4.47;;;;;;;5.59;100.00;96531.44;4954319;28;20110;-84
2021/10/13 01:34:27;;;;;;;6.50;4.30;;;;;;;5.61;100.00;96534.78;4954430;28;20046;-84
2021/10/13 01:37:03;;;;;;;6.38;3.90;;;;;;;5.73;100.00;96527.75;4954472;28;20030;-84
2021/10/13 01:39:30;;;;;;;8.90;4.30;;;;;;;5.69;100.00;96539.38;4949642;28;20035;-84
2021/10/13 01:42:03;;;;;;;8.10;4.60;;;;;;;5.63;100.00;96538.09;4957567;28;20428;-84
2021/10/13 01:44:31;;;;;;;6.60;4.30;;;;;;;5.59;100.00;96535.84;4974973;28;20516;-84
2021/10/13 01:46:59;;;;;;;7.43;5.00;;;;;;;5.71;100.00;96545.31;4938097;29;20622;-83
2021/10/13 01:49:26;;;;;;;8.70;4.13;;;;;;;5.64;100.00;96550.19;4941256;28;20026;-84
2021/10/13 01:51:53;;;;;;;7.43;4.90;;;;;;;5.69;100.00;96552.41;4938103;29;20027;-84
2021/10/13 01:54:19;;;;;;;10.93;4.50;;;;;;;5.75;100.00;96556.34;4957230;28;20049;-84
2021/10/13 01:56:48;;;;;;;7.47;3.97;;;;;;;5.74;100.00;96560.72;4945028;29;20425;-84
2021/10/13 01:59:22;;;;;;;9.87;4.63;;;;;;;5.79;100.00;96573.41;4969721;28;20031;-84
2021/10/13 02:02:03;;;;;;;8.17;4.47;;;;;;;5.73;100.00;96573.88;4975734;28;20034;-84
2021/10/13 02:04:31;;;;;;;9.40;4.17;;;;;;;5.76;100.00;96568.44;4959278;28;20112;-84
2021/10/13 02:06:57;;;;;;;7.07;4.07;;;;;;;5.67;100.00;96581.25;4936446;28;20046;-84
2021/10/13 02:09:26;;;;;;;8.27;4.93;;;;;;;5.62;100.00;96588.59;4976771;28;20046;-84
2021/10/13 02:11:57;;;;;;;8.83;4.47;;;;;;;5.67;100.00;96583.88;4969111;28;20023;-84
2021/10/13 02:14:25;;;;;;;7.70;4.30;;;;;;;5.67;100.00;96585.66;4959789;28;20045;-84
2021/10/13 02:16:53;;;;;;;6.60;4.70;;;;;;;5.79;100.00;96591.69;4959022;28;20034;-84
2021/10/13 02:19:31;;;;;;;8.90;4.87;;;;;;;5.66;100.00;96600.44;4940043;29;20031;-84
2021/10/13 02:21:59;;;;;;;7.40;4.67;;;;;;;5.68;100.00;96597.75;4958696;28;20532;-84
2021/10/13 02:24:49;;;;;;;6.67;4.17;;;;;;;5.76;100.00;96605.78;4939769;29;20114;-84
2021/10/13 02:27:29;;;;;;;9.77;5.13;;;;;;;5.59;100.00;96611.50;4918919;29;20126;-84
2021/10/13 02:29:55;;;;;;;8.33;5.47;;;;;;;5.54;100.00;96609.25;4939630;29;20066;-84
2021/10/13 02:32:21;;;;;;;9.57;5.73;;;;;;;5.54;100.00;96616.25;4954559;28;20048;-84
2021/10/13 02:34:48;;;;;;;8.03;6.10;;;;;;;5.42;100.00;96618.84;4958278;28;20050;-84
2021/10/13 02:37:14;;;;;;;10.53;5.60;;;;;;;5.44;100.00;96619.56;4942231;28;20117;-84
2021/10/13 02:39:40;;;;;;;10.57;6.50;;;;;;;5.52;100.00;96616.34;4958229;28;20031;-84
2021/10/13 02:42:07;;;;;;;9.00;5.67;;;;;;;5.48;100.00;96617.56;4958326;28;20033;-84
2021/10/13 02:44:34;;;;;;;8.97;5.43;;;;;;;5.38;100.00;96621.81;4957554;28;20050;-84
2021/10/13 02:47:16;;;;;;;8.80;5.67;;;;;;;5.42;100.00;96618.84;4943226;28;20037;-84
2021/10/13 02:50:10;;;;;;;11.77;6.23;;;;;;;5.38;100.00;96617.44;4958069;28;20038;-84
2021/10/13 02:52:50;;;;;;;8.43;5.95;;;;;;;5.33;100.00;96624.78;4937139;28;20101;-85
2021/10/13 02:55:32;;;;;;;9.43;5.83;;;;;;;5.36;100.00;96627.13;4944379;28;20058;-85
2021/10/13 02:58:21;;;;;;;10.80;6.30;;;;;;;5.44;100.00;96632.59;4953367;28;20058;-85
2021/10/13 03:00:50;;;;;;;8.70;6.67;;;;;;;5.48;100.00;96629.75;4973970;28;20035;-85
2021/10/13 03:03:28;;;;;;;9.57;6.13;;;;;;;5.56;100.00;96627.38;4958810;28;20394;-84
2021/10/13 03:05:56;;;;;;;8.23;5.87;;;;;;;5.56;100.00;96643.03;4950599;28;20516;-84
2021/10/13 03:08:56;;;;;;;8.93;6.10;;;;;;;5.46;100.00;96634.25;4938819;29;20031;-84
2021/10/13 03:11:28;;;;;;;11.10;6.60;;;;;;;5.42;100.00;96634.50;4960836;28;20523;-84
2021/10/13 03:13:55;;;;;;;11.07;7.53;;;;;;;5.40;100.00;96636.41;4946847;28;20039;-84
2021/10/13 03:16:22;;;;;;;11.63;7.13;;;;;;;5.36;100.00;96639.34;4958076;28;20026;-84
2021/10/13 03:18:49;;;;;;;11.20;7.40;;;;;;;5.35;100.00;96635.91;4938948;28;20108;-84
2021/10/13 03:21:15;;;;;;;10.50;7.30;;;;;;;5.38;100.00;96643.50;4934083;28;20449;-84
2021/10/13 03:23:42;;;;;;;12.07;6.80;;;;;;;5.36;100.00;96650.59;4956576;28;20118;-84
2021/10/13 03:26:10;;;;;;;12.83;7.17;;;;;;;5.44;100.00;96658.69;4959252;28;20031;-84
2021/10/13 03:28:37;;;;;;;10.47;6.90;;;;;;;5.46;100.00;96655.94;4959444;28;20090;-84
2021/10/13 03:31:03;;;;;;;10.63;6.80;;;;;;;5.46;100.00;96655.94;4946111;28;20022;-84
2021/10/13 03:33:29;;;;;;;10.37;6.50;;;;;;;5.50;100.00;96659.16;4958402;28;20034;-84
2021/10/13 03:35:55;;;;;;;9.57;7.03;;;;;;;5.48;100.00;96668.91;4941980;28;20054;-84
2021/10/13 03:38:21;;;;;;;11.13;6.53;;;;;;;5.42;100.00;96675.41;4958683;28;20035;-84
2021/10/13 03:40:46;;;;;;;13.37;6.93;;;;;;;5.51;100.00;96672.09;4942010;28;20177;-84
2021/10/13 03:43:12;;;;;;;11.03;7.73;;;;;;;5.41;100.00;96673.75;4959664;28;20453;-84
2021/10/13 03:45:38;;;;;;;10.33;6.63;;;;;;;5.48;100.00;96674.09;4940856;28;20513;-84
2021/10/13 03:48:04;;;;;;;10.80;7.03;;;;;;;5.50;100.00;96678.28;4956407;28;20045;-84
2021/10/13 03:50:30;;;;;;;10.10;7.20;;;;;;;5.43;100.00;96675.31;4966593;28;20409;-84
2021/10/13 03:52:55;;;;;;;11.43;7.03;;;;;;;5.46;100.00;96670.78;4956911;28;20045;-85
2021/10/13 03:55:21;;;;;;;11.03;7.30;;;;;;;5.42;100.00;96680.63;4948575;28;20037;-84
2021/10/13 03:57:48;;;;;;;10.20;7.50;;;;;;;5.42;100.00;96685.81;4949253;28;20027;-84
2021/10/13 04:00:20;;;;;;;11.23;8.23;;;;;;;5.37;100.00;96687.97;4960087;28;20533;-84
2021/10/13 04:02:48;;;;;;;9.63;7.10;;;;;;;5.44;100.00;96682.16;4950197;28;20067;-84
2021/10/13 04:05:15;;;;;;;8.43;6.30;;;;;;;5.44;100.00;96690.00;4951285;28;20093;-84
2021/10/13 04:07:42;;;;;;;13.40;8.20;;;;;;;5.49;100.00;96688.81;4940996;29;20050;-85
2021/10/13 04:10:10;;;;;;;11.03;7.90;;;;;;;5.49;100.00;96691.41;4967494;28;20026;-84
2021/10/13 04:12:37;;;;;;;12.60;6.93;;;;;;;5.45;100.00;96698.63;4947810;28;20042;-84
2021/10/13 04:15:08;;;;;;;13.00;7.03;;;;;;;5.39;100.00;96693.88;4972959;28;20045;-84
2021/10/13 04:17:34;;;;;;;11.27;7.27;;;;;;;5.31;100.00;96702.28;4940447;28;20498;-84
2021/10/13 04:20:09;;;;;;;12.53;7.20;;;;;;;5.35;100.00;96708.94;4944846;28;20034;-84
2021/10/13 04:22:36;;;;;;;12.33;7.40;;;;;;;5.43;100.00;96701.38;4964729;28;20473;-84
2021/10/13 04:25:02;;;;;;;11.50;7.00;;;;;;;5.36;100.00;96688.91;4964694;28;20146;-84
2021/10/13 04:27:40;;;;;;;12.17;7.23;;;;;;;5.44;100.00;96692.59;4968161;28;20506;-85
2021/10/13 04:30:07;;;;;;;11.30;6.90;;;;;;;5.47;100.00;96694.16;4956660;28;20509;-85
2021/10/13 04:32:33;;;;;;;11.47;6.23;;;;;;;5.44;100.00;96692.59;4967090;28;20110;-85
2021/10/13 04:34:59;;;;;;;8.63;6.37;;;;;;;5.41;100.00;96695.44;4957217;28;20133;-85
2021/10/13 04:37:24;;;;;;;15.17;7.50;;;;;;;5.30;100.00;96700.63;4956216;28;20034;-85
2021/10/13 04:39:50;;;;;;;13.17;6.47;;;;;;;5.12;100.00;96700.22;4940146;28;20023;-85
2021/10/13 04:42:16;;;;;;;9.60;7.07;;;;;;;5.23;100.00;96699.44;4955943;28;20038;-85
2021/10/13 04:44:47;;;;;;;12.30;6.87;;;;;;;5.16;100.00;96708.63;4961008;28;20034;-85
2021/10/13 04:47:12;;;;;;;11.20;7.40;;;;;;;5.29;100.00;96716.38;4955673;28;20045;-85
2021/10/13 04:49:38;;;;;;;11.30;6.90;;;;;;;5.20;100.00;96710.94;4942921;28;20040;-85
2021/10/13 04:52:04;;;;;;;11.80;6.77;;;;;;;5.16;100.00;96717.31;4966160;28;20038;-86
2021/10/13 04:54:30;;;;;;;9.10;6.90;;;;;;;5.09;100.00;96720.47;4949668;28;20058;-85
2021/10/13 04:56:56;;;;;;;11.73;7.53;;;;;;;5.19;100.00;96719.66;4939118;28;20027;-85
2021/10/13 04:59:21;;;;;;;11.37;7.13;;;;;;;5.15;100.00;96720.03;4955127;28;20027;-85
2021/10/13 05:01:47;;;;;;;19.63;11.40;;;;;;;5.15;100.00;96722.63;4955722;28;20085;-85
2021/10/13 05:04:13;;;;;;;20.63;14.93;;;;;;;5.24;100.00;96726.34;4955549;28;20046;-85
2021/10/13 05:06:39;;;;;;;16.60;11.97;;;;;;;5.29;100.00;96729.44;4938884;28;20058;-85
2021/10/13 05:09:04;;;;;;;13.07;8.00;;;;;;;5.15;100.00;96723.47;4956088;28;20524;-85
2021/10/13 05:11:30;;;;;;;13.43;9.00;;;;;;;5.25;100.00;96733.22;4955302;28;20043;-85
2021/10/13 05:13:56;;;;;;;13.13;9.77;;;;;;;5.30;100.00;96718.91;4959725;28;20019;-85
2021/10/13 05:16:21;;;;;;;11.50;7.37;;;;;;;5.28;100.00;96726.00;4944167;28;20034;-84
2021/10/13 05:18:47;;;;;;;10.93;7.00;;;;;;;5.22;100.00;96731.66;4959150;28;20130;-85
2021/10/13 05:21:13;;;;;;;9.70;6.50;;;;;;;5.26;100.00;96727.03;4958039;28;20073;-85
2021/10/13 05:23:38;;;;;;;11.90;6.97;;;;;;;5.25;100.00;96733.22;4942700;28;20031;-85
2021/10/13 05:26:04;;;;;;;11.40;7.23;;;;;;;5.16;100.00;96732.97;4943670;28;20510;-85
2021/10/13 05:28:42;;;;;;;11.63;7.33;;;;;;;5.22;100.00;96736.03;4944318;28;20405;-87
2021/10/13 05:31:08;;;;;;;10.83;7.33;;;;;;;5.21;100.00;96732.59;4959159;28;20042;-86
2021/10/13 05:33:34;;;;;;;14.43;7.87;;;;;;;5.16;100.00;96742.53;4943331;28;20433;-86
2021/10/13 05:35:59;;;;;;;12.47;8.30;;;;;;;5.19;100.00;96742.31;4958459;28;20049;-86
2021/10/13 05:38:27;;;;;;;11.87;7.97;;;;;;;5.20;100.00;96754.44;4942611;28;20479;-86
2021/10/13 05:40:54;;;;;;;11.53;7.60;;;;;;;5.24;100.00;96747.19;4936264;28;20030;-85
2021/10/13 05:43:20;;;;;;;15.20;9.77;;;;;;;5.28;100.00;96754.69;4944183;28;20030;-86
2021/10/13 05:45:47;;;;;;;20.87;12.27;;;;;;;5.22;100.00;96755.13;4942074;28;20050;-86
2021/10/13 05:48:14;;;;;;;14.23;9.83;;;;;;;5.30;100.00;96765.84;4939267;29;20034;-86
2021/10/13 05:50:40;;;;;;;11.10;8.10;;;;;;;5.27;100.00;96767.84;4955575;28;20038;-87
2021/10/13 05:53:05;;;;;;;12.90;8.73;;;;;;;5.38;100.00;96768.69;4975261;28;20445;-86
2021/10/13 05:55:31;;;;;;;13.90;8.83;;;;;;;5.34;100.00;96771.66;4958074;28;20039;-87
2021/10/13 05:57:57;;;;;;;13.20;9.07;;;;;;;5.32;100.00;96770.94;4958353;28;20027;-87
2021/10/13 06:00:27;;;;;;;13.83;8.57;;;;;;;5.37;100.00;96785.31;4941839;28;20441;-86
2021/10/13 06:02:52;;;;;;;11.17;6.93;;;;;;;5.32;100.00;96782.19;4941736;28;20531;-87
2021/10/13 06:05:18;;;;;;;14.60;9.03;;;;;;;5.36;100.00;96783.63;4938573;29;20031;-87
2021/10/13 06:07:44;;;;;;;14.73;8.27;;;;;;;5.38;100.00;96788.72;4958631;28;20078;-87
2021/10/13 06:10:10;;;;;;;11.13;8.13;;;;;;;5.46;100.00;96796.81;4949238;28;20038;-87
2021/10/13 06:12:36;;;;;;;12.47;8.37;;;;;;;5.37;100.00;96806.16;4939792;28;20413;-87
2021/10/13 06:15:02;;;;;;;12.33;7.73;;;;;;;5.47;100.00;96806.31;4957494;28;20117;-87
2021/10/13 06:17:28;;;;;;;14.00;8.40;;;;;;;5.46;100.00;96807.25;4957617;28;20061;-87
2021/10/13 06:19:53;;;;;;;13.63;8.70;;;;;;;5.34;100.00;96816.81;4957279;28;20026;-86
2021/10/13 06:22:19;;;;;;;14.33;8.23;;;;;;;5.46;100.00;96819.47;4957654;28;20046;-86
2021/10/13 06:24:45;;;;;;;17.47;7.87;;;;;;;5.55;100.00;96818.78;4956815;28;20031;-86
2021/10/13 06:27:10;;;;;;;14.63;8.40;;;;;;;5.55;100.00;96818.78;4957973;28;20034;-86
2021/10/13 06:29:36;;;;;;;11.50;7.43;;;;;;;5.55;100.00;96829.22;4957778;28;20033;-86
2021/10/13 06:32:02;;;;;;;12.60;8.77;;;;;;;5.70;100.00;96828.09;4938967;29;20125;-87
2021/10/13 06:34:28;;;;;;;13.23;8.27;;;;;;;5.66;100.00;96829.25;4949674;28;20034;-86
2021/10/13 06:36:53;;;;;;;12.50;8.67;;;;;;;5.71;100.00;96827.13;4941295;28;20038;-86
2021/10/13 06:39:19;;;;;;;17.67;11.13;;;;;;;5.72;100.00;96834.00;4975232;28;20081;-86
2021/10/13 06:41:45;;;;;;;14.43;9.10;;;;;;;5.73;100.00;96840.88;4941234;28;20035;-87
2021/10/13 06:44:12;;;;;;;12.40;8.87;;;;;;;5.82;100.00;96853.25;4949732;28;20027;-87
2021/10/13 06:46:41;;;;;;;13.80;9.10;;;;;;;5.99;100.00;96856.41;4941947;28;20034;-87
2021/10/13 06:49:07;;;;;;;12.77;7.50;;;;;;;5.87;100.00;96852.94;4957405;28;20042;-86
2021/10/13 06:51:58;;;;;;;13.53;8.17;;;;;;;5.90;100.00;96863.97;4956617;28;20047;-87
2021/10/13 06:54:23;;;;;;;12.03;7.60;;;;;;;5.86;100.00;96852.06;4941055;28;20037;-86
2021/10/13 06:56:49;;;;;;;14.00;9.20;;;;;;;6.10;100.00;96864.25;4953422;28;20605;-87
2021/10/13 06:59:15;;;;;;;10.47;8.20;;;;;;;6.04;100.00;96860.34;4956836;28;20031;-87
2021/10/13 07:01:40;;;;;;;12.60;9.57;;;;;;;5.92;100.00;96858.63;4941453;28;20022;-86
2021/10/13 07:04:06;;;;;;;12.17;7.17;;;;;;;5.82;100.00;96861.09;4941095;28;20046;-86
2021/10/13 07:06:32;;;;;;;14.53;9.70;;;;;;;6.02;100.00;96861.41;4943629;28;20500;-86
2021/10/13 07:09:06;;;;;;;13.27;8.63;;;;;;;5.85;100.00;96870.47;4940299;28;20053;-87
2021/10/13 07:11:33;;;;;;;11.53;7.53;;;;;;;5.84;100.00;96868.81;4943319;28;20117;-86
2021/10/13 07:13:59;;;;;;;14.63;8.87;;;;;;;5.95;100.00;96874.09;4941560;28;20061;-86
2021/10/13 07:16:25;;;;;;;14.10;8.60;;;;;;;5.86;100.00;96872.97;4974436;28;20043;-87
2021/10/13 07:18:50;;;;;;;14.73;8.93;;;;;;;6.04;100.00;96869.97;4974003;28;20026;-87
2021/10/13 07:21:16;;;;;;;11.87;7.93;;;;;;;6.18;100.00;96874.97;4940652;28;20043;-86
2021/10/13 07:23:42;;;;;;;14.93;6.67;;;;;;;6.47;100.00;96874.50;4956624;28;20035;-87
2021/10/13 07:26:08;;;;;;;9.93;7.00;;;;;;;6.79;100.00;96878.09;4940859;28;20030;-87
2021/10/13 07:28:39;;;;;;;10.60;6.30;;;;;;;6.76;100.00;96875.72;4956737;28;20042;-86
2021/10/13 07:31:05;;;;;;;14.07;8.00;;;;;;;6.88;100.00;96880.94;4956709;28;20105;-87
2021/10/13 07:33:31;;;;;;;11.03;6.17;;;;;;;6.79;100.00;96872.84;4956543;28;20038;-86
2021/10/13 07:35:56;;;;;;;8.73;5.67;;;;;;;6.65;100.00;96875.72;4936024;29;20031;-86
2021/10/13 07:38:22;;;;;;;9.10;5.90;;;;;;;6.68;100.00;96872.03;4955769;28;20058;-87
2021/10/13 07:40:49;;;;;;;11.03;6.03;;;;;;;6.60;100.00;96880.47;4956186;28;20123;-86
2021/10/13 07:43:14;;;;;;;10.40;5.37;;;;;;;6.67;100.00;96879.03;4952148;28;20031;-86
2021/10/13 07:45:42;;;;;;;10.77;5.57;;;;;;;6.55;100.00;96888.66;4956443;28;20041;-86
2021/10/13 07:48:08;;;;;;;11.33;5.67;;;;;;;6.65;100.00;96886.19;4956283;28;20054;-86
2021/10/13 07:50:34;;;;;;;10.17;5.80;;;;;;;6.55;100.00;96885.22;4947205;28;20073;-87
2021/10/13 07:53:00;;;;;;;8.50;5.27;;;;;;;6.65;100.00;96885.34;4956083;28;20485;-86
2021/10/13 07:55:25;;;;;;;10.07;6.00;;;;;;;6.82;100.00;96884.88;4956004;28;20565;-87
2021/10/13 07:57:51;;;;;;;11.03;5.70;;;;;;;6.73;100.00;96888.19;4956408;28;20402;-87
2021/10/13 08:00:19;;;;;;;8.57;5.73;;;;;;;6.80;100.00;96894.59;4939845;28;20031;-86
2021/10/13 08:02:46;;;;;;;11.77;5.40;;;;;;;6.69;100.00;96902.44;4956184;28;20030;-86
2021/10/13 08:05:11;;;;;;;11.20;6.03;;;;;;;6.96;100.00;96902.09;4972868;28;20066;-86
2021/10/13 08:07:37;;;;;;;11.50;6.20;;;;;;;6.78;100.00;96902.56;4956324;28;20420;-86
2021/10/13 08:10:03;;;;;;;8.27;5.67;;;;;;;7.09;100.00;96905.41;4955667;28;20039;-86
2021/10/13 08:12:29;;;;;;;10.80;5.57;;;;;;;6.83;100.00;96908.25;4938296;28;20484;-79
2021/10/13 08:14:55;;;;;;;13.00;5.23;;;;;;;6.85;100.00;96906.38;4937962;28;20050;-79
2021/10/13 08:17:20;;;;;;;8.60;4.83;;;;;;;6.83;100.00;96910.88;4937930;28;20058;-79
2021/10/13 08:19:46;;;;;;;10.70;5.10;;;;;;;7.05;100.00;96902.19;4953789;28;20118;-79
2021/10/13 08:22:12;;;;;;;9.17;4.80;;;;;;;7.45;100.00;96908.66;4945993;28;20031;-80
2021/10/13 08:24:44;;;;;;;7.23;4.33;;;;;;;7.56;100.00;96904.22;4953485;28;20042;-80
2021/10/13 08:27:09;;;;;;;7.37;4.33;;;;;;;8.48;100.00;96904.50;4954188;28;20030;-80
2021/10/13 08:29:35;;;;;;;6.73;3.90;;;;;;;8.24;100.00;96899.47;4953940;28;20037;-79
2021/10/13 08:32:01;;;;;;;8.33;4.17;;;;;;;8.34;100.00;96909.19;4938287;28;20045;-79
2021/10/13 08:34:27;;;;;;;7.50;4.17;;;;;;;8.38;100.00;96905.38;4953658;28;20069;-80
2021/10/13 08:36:53;;;;;;;9.73;3.87;;;;;;;8.15;100.00;96908.13;4952240;28;20501;-79
2021/10/13 08:39:19;;;;;;;8.83;5.37;;;;;;;8.46;100.00;96906.41;4952702;28;20026;-79
2021/10/13 08:41:46;;;;;;;9.97;3.97;;;;;;;8.94;100.00;96907.59;4933579;28;20093;-80
2021/10/13 08:44:15;;;;;;;7.40;4.03;;;;;;;8.90;100.00;96916.69;4935487;28;20062;-79
2021/10/13 08:46:42;;;;;;;8.47;2.93;;;;;;;8.94;99.96;96908.44;4932745;28;20066;-79
2021/10/13 08:49:08;;;;;;;7.30;3.47;;;;;;;9.67;95.99;96905.56;4933705;29;20086;-79
2021/10/13 08:51:38;;;;;;;11.47;6.63;;;;;;;9.56;96.13;96906.53;4931563;28;20083;-79
2021/10/13 08:54:05;;;;;;;7.20;3.73;;;;;;;8.73;95.78;96905.88;4968021;28;20035;-79
2021/10/13 08:56:32;;;;;;;12.40;4.33;;;;;;;8.68;96.94;96907.22;4952870;28;20019;-78
2021/10/13 08:58:58;;;;;;;12.67;5.30;;;;;;;8.70;100.00;96911.38;4937847;28;20397;-78
2021/10/13 09:01:24;;;;;;;17.27;8.60;;;;;;;8.85;99.37;96913.63;4953180;28;20031;-78
2021/10/13 09:04:01;;;;;;;37.73;18.17;;;;;;;8.70;100.00;96919.22;4953533;28;20038;-78
2021/10/13 09:06:33;;;;;;;10.60;4.03;;;;;;;8.84;98.85;96918.06;4952765;28;20647;-79
2021/10/13 09:09:09;;;;;;;6.73;3.10;;;;;;;9.40;97.78;96912.28;4953112;28;20035;-79
2021/10/13 09:11:49;;;;;;;14.27;5.07;;;;;;;9.84;90.59;96917.19;4936534;28;20453;-79
2021/10/13 09:14:19;;;;;;;9.30;3.03;;;;;;;10.19;91.79;96910.53;4953356;28;20049;-78
2021/10/13 09:16:47;;;;;;;9.77;3.30;;;;;;;10.03;89.05;96919.00;4937070;28;20101;-78
2021/10/13 09:19:13;;;;;;;15.70;7.03;;;;;;;10.24;89.62;96914.41;4953561;28;20031;-78
2021/10/13 09:21:56;;;;;;;10.87;4.97;;;;;;;10.11;90.28;96916.50;4948199;28;20070;-78
2021/10/13 09:24:25;;;;;;;5.22;2.28;;;;;;;10.19;88.84;96915.78;4953232;28;20545;-78
2021/10/13 09:26:52;;;;;;;4.43;2.07;;;;;;;9.43;91.98;96911.19;4936958;28;20037;-77
2021/10/13 09:29:18;;;;;;;5.60;2.50;;;;;;;9.52;91.90;96912.16;4937019;28;20038;-78
2021/10/13 09:31:43;;;;;;;4.13;2.27;;;;;;;9.35;90.82;96921.53;4953573;28;20026;-78
2021/10/13 09:34:11;;;;;;;4.50;2.00;;;;;;;9.52;91.68;96912.16;4953235;28;20128;-78
2021/10/13 09:36:38;;;;;;;5.13;2.10;;;;;;;9.76;89.53;96915.25;4952089;28;20034;-78
2021/10/13 09:39:19;;;;;;;4.90;1.97;;;;;;;9.64;90.02;96914.53;4952629;28;20073;-78
2021/10/13 09:41:57;;;;;;;9.47;5.87;;;;;;;10.13;89.34;96922.44;4953031;28;20034;-78
2021/10/13 09:44:23;;;;;;;6.97;3.17;;;;;;;10.74;87.28;96916.00;4937103;28;20089;-78
2021/10/13 09:46:49;;;;;;;10.70;3.13;;;;;;;10.92;85.85;96908.97;4937594;28;20022;-78
2021/10/13 09:49:33;;;;;;;14.27;3.63;;;;;;;10.34;85.56;96914.41;4951879;28;20118;-78
2021/10/13 09:52:14;;;;;;;5.73;1.67;;;;;;;9.38;85.88;96916.00;4945663;28;20055;-78
2021/10/13 09:54:43;;;;;;;4.20;0.93;;;;;;;8.41;93.81;96931.34;4951522;28;20481;-78
2021/10/13 09:57:20;;;;;;;1.70;0.50;;;;;;;7.61;97.21;96935.25;4952282;28;20034;-78
2021/10/13 10:00:02;;;;;;;11.63;1.93;;;;;;;7.84;100.00;96937.78;4938869;28;20831;-78
2021/10/13 10:02:37;;;;;;;4.60;0.87;;;;;;;7.72;100.00;96940.47;4955747;28;20105;-79
2021/10/13 10:05:22;;;;;;;2.22;0.88;;;;;;;7.82;100.00;96937.09;4946808;28;20034;-79
2021/10/13 10:08:09;;;;;;;3.13;1.23;;;;;;;8.00;100.00;96936.41;4940009;28;20035;-79
2021/10/13 10:10:36;;;;;;;2.20;0.90;;;;;;;8.09;100.00;96937.44;4935663;28;20074;-78
2021/10/13 10:13:09;;;;;;;2.30;0.50;;;;;;;8.28;97.87;96939.38;4937065;29;20110;-78
2021/10/13 10:15:39;;;;;;;2.65;0.55;;;;;;;8.50;95.88;96933.19;4936936;28;20058;-79
2021/10/13 10:18:24;;;;;;;1.30;0.43;;;;;;;8.40;97.87;96934.94;4973169;28;20041;-78
2021/10/13 10:20:51;;;;;;;1.47;0.47;;;;;;;8.71;96.29;96934.00;4938659;28;20038;-79
2021/10/13 10:23:40;;;;;;;7.60;2.33;;;;;;;9.17;95.78;96931.84;4955638;28;20031;-79
2021/10/13 10:26:24;;;;;;;3.80;1.47;;;;;;;9.43;94.27;96927.78;4933512;28;20089;-79
2021/10/13 10:28:50;;;;;;;1.93;0.70;;;;;;;9.94;91.85;96933.78;4939851;28;20035;-78
2021/10/13 10:31:28;;;;;;;11.77;5.73;;;;;;;9.99;84.78;96930.72;4939998;28;20493;-79
2021/10/13 10:34:03;;;;;;;1.97;1.20;;;;;;;9.74;88.06;96932.13;4932370;28;20122;-78
2021/10/13 10:36:35;;;;;;;2.57;0.90;;;;;;;9.55;85.34;96932.91;4954629;28;20043;-78
2021/10/13 10:39:08;;;;;;;1.27;0.50;;;;;;;9.88;86.71;96932.53;4955261;28;20031;-78
2021/10/13 10:41:54;;;;;;;4.43;0.60;;;;;;;9.70;88.79;96935.97;4937753;28;20545;-78
2021/10/13 10:44:33;;;;;;;1.50;0.70;;;;;;;10.33;87.80;96936.44;4955506;28;20035;-79
2021/10/13 10:47:01;;;;;;;3.33;1.10;;;;;;;11.07;84.51;96933.88;4947911;28;20716;-78
2021/10/13 10:49:54;;;;;;;4.93;1.13;;;;;;;10.97;83.83;96927.81;4972110;28;20718;-78
2021/10/13 10:52:25;;;;;;;2.60;1.10;;;;;;;11.60;77.72;96924.41;4946940;28;20050;-78
2021/10/13 10:55:08;;;;;;;2.13;1.20;;;;;;;12.70;75.89;96920.59;4930804;28;20042;-78
2021/10/13 10:57:40;;;;;;;3.90;1.42;;;;;;;12.67;75.45;96918.28;4955251;28;20074;-78
2021/10/13 11:00:29;;;;;;;3.10;1.17;;;;;;;13.15;73.24;96911.63;4938823;28;20043;-78
2021/10/13 11:03:18;;;;;;;4.57;1.40;;;;;;;13.46;69.40;96900.53;4955026;28;20166;-78
2021/10/13 11:05:45;;;;;;;3.07;1.37;;;;;;;13.85;65.33;96908.72;4938241;28;20034;-78
2021/10/13 11:08:12;;;;;;;3.50;1.30;;;;;;;14.08;65.06;96908.88;4972677;28;20038;-76
2021/10/13 11:10:39;;;;;;;3.47;1.27;;;;;;;12.79;69.43;96911.75;4937967;28;20193;-76
2021/10/13 11:13:05;;;;;;;3.97;1.50;;;;;;;12.63;74.30;96911.66;4938821;28;20035;-76
2021/10/13 11:15:31;;;;;;;1.80;1.20;;;;;;;11.48;76.24;96920.34;4940426;28;20035;-76
2021/10/13 11:18:18;;;;;;;5.10;1.57;;;;;;;11.77;74.20;96915.72;4935663;29;20019;-76
2021/10/13 11:20:46;;;;;;;3.77;1.53;;;;;;;11.40;79.37;96920.25;4953505;28;20053;-76
2021/10/13 11:23:13;;;;;;;6.47;2.70;;;;;;;11.00;86.28;96922.25;4938438;28;20451;-76
2021/10/13 11:25:39;;;;;;;3.87;2.10;;;;;;;10.99;79.71;96920.59;4938556;28;20039;-75
2021/10/13 11:28:08;;;;;;;3.73;1.40;;;;;;;10.47;82.83;96930.72;4954012;28;20031;-76
2021/10/13 11:30:48;;;;;;;5.87;1.60;;;;;;;10.48;86.13;96932.38;4938633;28;20093;-76
2021/10/13 11:33:16;;;;;;;2.70;1.33;;;;;;;10.28;85.31;96920.22;4932063;29;20039;-75
2021/10/13 11:36:03;;;;;;;4.63;1.43;;;;;;;9.89;90.03;96930.72;4946633;28;20512;-76
2021/10/13 11:38:32;;;;;;;3.50;1.03;;;;;;;9.63;88.07;96919.94;4935606;28;20130;-77
2021/10/13 11:41:07;;;;;;;2.83;1.20;;;;;;;11.13;81.64;96921.09;4938568;28;20029;-76